Terminal Aerodrome Forecast
Issued by NWS Quad Cities IA IL

Home | Current Version | Previous Version | Text Only | Print | Product List | Glossary On
Versions: 1 2 3 4 5 6 7 8 9 10 11 12 13 14 15 16 17 18 19 20
000
FTUS43 KDVN 211134
TAFMLI
TAF
KMLI 211134Z 2112/2212 23011KT P6SM SCT040
     FM211500 26015G20KT P6SM BKN030
     FM212100 27015G22KT P6SM BKN035
     FM220100 25009KT P6SM SCT040=

USA.gov is the U.S. government's official web portal to all federal, state and local government web resources and services.